Time;durP1;ratioP1;P1;durP2;ratioP2;P2;SDS_P1;SDS_P2;PMS_P1;PMS_P2;Temp;Humidity;BMP_temperature;BMP_pressure;BME280_temperature;BME280_humidity;BME280_pressure;Samples;Min_cycle;Max_cycle;Signal;HPM_P1;HPM_P2
2021/06/14 18:33:32;;;;;;;10.65;5.63;;;27.10;70.40;;;;;;6129790;23;20036;-77
2021/06/14 18:36:01;;;;;;;9.90;5.40;;;27.10;70.50;;;;;;6071516;23;20454;-76
2021/06/14 18:38:34;;;;;;;8.07;5.63;;;27.10;70.20;;;;;;6095985;23;20014;-77
2021/06/14 18:41:06;;;;;;;9.07;7.72;;;27.00;70.40;;;;;;6095922;23;20014;-77
2021/06/14 18:43:32;;;;;;;9.38;7.25;;;27.00;70.90;;;;;;6095627;23;20362;-77
2021/06/14 18:45:58;;;;;;;7.72;5.88;;;27.00;70.90;;;;;;6095513;23;20010;-76
2021/06/14 18:48:26;;;;;;;8.13;6.40;;;27.00;70.90;;;;;;6071464;23;20018;-76
2021/06/14 18:50:52;;;;;;;7.30;5.82;;;27.00;71.20;;;;;;6095405;23;20044;-75
2021/06/14 18:53:19;;;;;;;9.85;6.20;;;26.90;71.10;;;;;;6121174;23;20579;-76
2021/06/14 18:55:46;;;;;;;9.98;6.00;;;26.80;71.20;;;;;;6095013;23;20014;-75
2021/06/14 18:58:13;;;;;;;8.20;7.35;;;26.80;70.90;;;;;;6095407;23;20013;-75
2021/06/14 19:00:40;;;;;;;8.93;7.10;;;26.80;71.60;;;;;;6071085;23;20017;-74
2021/06/14 19:03:06;;;;;;;9.77;7.47;;;26.70;71.10;;;;;;6095080;23;20016;-74
2021/06/14 19:05:32;;;;;;;11.45;7.13;;;26.50;71.30;;;;;;6071534;23;20016;-75
2021/06/14 19:07:59;;;;;;;13.27;6.90;;;26.50;71.80;;;;;;6071432;23;20021;-74
2021/06/14 19:10:25;;;;;;;13.32;7.63;;;26.40;71.70;;;;;;6095312;23;20096;-73
2021/06/14 19:12:51;;;;;;;12.68;8.00;;;26.30;72.30;;;;;;6095332;23;20100;-73
2021/06/14 19:15:21;;;;;;;12.45;7.60;;;26.30;72.70;;;;;;6095266;23;20036;-74
2021/06/14 19:17:48;;;;;;;11.45;7.53;;;26.30;73.20;;;;;;6120809;23;20021;-75
2021/06/14 19:20:15;;;;;;;12.48;7.93;;;26.20;73.40;;;;;;6095073;23;20022;-80
2021/06/14 19:22:46;;;;;;;17.02;8.98;;;26.10;73.50;;;;;;6095352;23;20010;-79
2021/06/14 19:25:14;;;;;;;12.75;9.13;;;26.10;73.80;;;;;;6122383;23;20452;-79
2021/06/14 19:27:42;;;;;;;10.63;8.55;;;26.00;74.10;;;;;;6096910;23;20018;-79
2021/06/14 19:30:09;;;;;;;12.90;9.82;;;26.00;74.00;;;;;;6072960;23;20025;-81
2021/06/14 19:32:35;;;;;;;12.02;9.05;;;26.00;74.10;;;;;;6122556;23;20464;-79
2021/06/14 19:35:01;;;;;;;13.80;8.75;;;25.90;74.30;;;;;;6072829;23;20060;-80
2021/06/14 19:37:27;;;;;;;11.55;8.60;;;25.90;74.10;;;;;;6072502;23;20024;-79
2021/06/14 19:39:53;;;;;;;12.65;10.30;;;25.90;74.20;;;;;;6096872;23;20013;-77
2021/06/14 19:42:23;;;;;;;10.85;8.70;;;25.80;74.00;;;;;;6122879;23;20470;-80
2021/06/14 19:44:49;;;;;;;10.52;8.30;;;25.80;73.60;;;;;;6123662;23;20013;-83
2021/06/14 19:47:16;;;;;;;10.40;8.30;;;25.80;73.50;;;;;;6096373;23;20014;-84
2021/06/14 19:49:42;;;;;;;11.68;8.20;;;25.70;73.00;;;;;;6072680;23;20029;-85
2021/06/14 19:52:08;;;;;;;12.00;8.45;;;25.70;73.20;;;;;;6096383;23;20462;-85
2021/06/14 19:54:34;;;;;;;10.13;8.43;;;25.70;73.40;;;;;;6122886;23;20531;-83
2021/06/14 19:57:02;;;;;;;11.38;8.63;;;25.70;73.80;;;;;;6096576;23;20045;-80
2021/06/14 19:59:28;;;;;;;17.27;13.65;;;25.60;73.80;;;;;;6071264;23;20010;-80
2021/06/14 20:01:54;;;;;;;17.67;11.70;;;25.60;73.70;;;;;;6121857;23;20053;-80
2021/06/14 20:04:20;;;;;;;11.30;10.20;;;25.60;74.50;;;;;;6121987;23;20013;-78
2021/06/14 20:06:46;;;;;;;14.13;11.10;;;25.40;75.30;;;;;;6122027;23;20014;-81
2021/06/14 20:09:12;;;;;;;13.18;10.90;;;25.50;75.30;;;;;;6121796;23;20356;-79
2021/06/14 20:11:45;;;;;;;13.05;10.00;;;25.50;75.70;;;;;;6096030;23;20025;-77
2021/06/14 20:14:11;;;;;;;13.48;10.60;;;25.40;76.40;;;;;;6122302;23;20021;-77
2021/06/14 20:16:37;;;;;;;11.68;10.25;;;25.40;77.10;;;;;;6095799;23;20020;-78
2021/06/14 20:19:03;;;;;;;11.68;10.10;;;25.30;77.70;;;;;;6096087;23;20022;-81
2021/06/14 20:21:29;;;;;;;13.05;10.57;;;25.30;78.10;;;;;;6072209;23;20010;-78
2021/06/14 20:23:56;;;;;;;11.90;10.02;;;25.20;78.20;;;;;;6071760;23;20014;-78
2021/06/14 20:26:23;;;;;;;11.05;9.85;;;25.50;78.50;;;;;;6096670;23;20010;-82
2021/06/14 20:28:49;;;;;;;13.25;10.63;;;25.10;78.40;;;;;;6096212;23;20470;-77
2021/06/14 20:31:16;;;;;;;13.32;11.90;;;25.10;78.30;;;;;;6120162;23;20021;-78
2021/06/14 20:33:43;;;;;;;17.48;11.20;;;25.10;78.10;;;;;;6096138;23;20021;-80
2021/06/14 20:36:09;;;;;;;11.05;9.90;;;25.00;78.40;;;;;;6121865;23;20010;-80
2021/06/14 20:38:36;;;;;;;12.88;10.00;;;25.10;78.20;;;;;;6096223;23;20014;-79
2021/06/14 20:41:03;;;;;;;10.82;9.73;;;25.10;78.10;;;;;;6121887;23;20043;-81
2021/06/14 20:43:28;;;;;;;10.93;9.77;;;25.00;78.40;;;;;;6121660;23;20020;-79
2021/06/14 20:45:55;;;;;;;12.75;10.30;;;25.10;78.60;;;;;;6071964;23;20014;-80
2021/06/14 20:48:20;;;;;;;11.68;10.07;;;25.10;78.40;;;;;;6072139;23;20010;-80
2021/06/14 20:50:46;;;;;;;12.80;10.70;;;25.10;78.00;;;;;;6122181;23;20052;-80
2021/06/14 20:53:12;;;;;;;13.57;10.85;;;25.10;78.20;;;;;;6095940;23;20104;-78
2021/06/14 20:55:38;;;;;;;14.23;10.02;;;25.00;78.50;;;;;;6120313;23;20084;-82
2021/06/14 20:58:05;;;;;;;12.10;9.68;;;25.00;79.10;;;;;;6071711;23;20044;-80
2021/06/14 21:00:32;;;;;;;11.00;9.43;;;25.00;79.40;;;;;;6121579;23;20040;-78
2021/06/14 21:02:58;;;;;;;13.55;11.10;;;24.90;79.60;;;;;;6121766;23;20159;-79
2021/06/14 21:05:27;;;;;;;11.13;9.90;;;24.90;79.90;;;;;;6121494;23;20074;-78
2021/06/14 21:07:54;;;;;;;11.52;9.75;;;24.80;79.90;;;;;;6095915;23;20014;-77
2021/06/14 21:10:21;;;;;;;10.80;9.38;;;24.80;80.10;;;;;;6096225;23;20037;-77
2021/06/14 21:12:48;;;;;;;11.88;10.60;;;24.70;80.00;;;;;;6095871;23;20010;-76
2021/06/14 21:15:15;;;;;;;12.95;10.13;;;24.70;80.30;;;;;;6095887;23;20018;-77
2021/06/14 21:17:45;;;;;;;13.35;10.80;;;24.70;80.30;;;;;;6095816;23;20041;-77
2021/06/14 21:20:12;;;;;;;13.40;9.98;;;24.60;80.50;;;;;;6071903;23;20447;-77
2021/06/14 21:22:38;;;;;;;10.82;9.73;;;24.60;80.50;;;;;;6095643;23;20018;-78
2021/06/14 21:25:05;;;;;;;11.68;10.52;;;24.60;80.00;;;;;;6072149;23;20013;-84
2021/06/14 21:27:31;;;;;;;12.40;11.05;;;24.60;80.60;;;;;;6096320;23;20025;-81
2021/06/14 21:29:58;;;;;;;13.60;10.15;;;24.60;80.40;;;;;;6122461;23;20013;-81
2021/06/14 21:32:24;;;;;;;11.75;10.55;;;24.60;80.20;;;;;;6121889;23;20053;-81
2021/06/14 21:34:50;;;;;;;15.15;11.30;;;24.60;80.80;;;;;;6122208;23;20017;-79
2021/06/14 21:37:16;;;;;;;10.75;9.65;;;24.50;80.80;;;;;;6122214;23;20021;-82
2021/06/14 21:39:42;;;;;;;12.73;9.95;;;24.50;80.70;;;;;;6096646;23;20017;-82
2021/06/14 21:42:08;;;;;;;11.43;9.65;;;24.50;80.90;;;;;;6122159;23;20009;-82
2021/06/14 21:44:34;;;;;;;13.45;10.45;;;24.50;81.10;;;;;;6122377;23;20482;-80
2021/06/14 21:47:00;;;;;;;13.65;10.43;;;24.40;81.10;;;;;;6119980;23;20064;-82
2021/06/14 21:49:28;;;;;;;11.73;9.82;;;;;;;;;;6096083;23;20094;-83
2021/06/14 21:51:55;;;;;;;10.75;9.55;;;24.40;80.60;;;;;;6095878;23;20014;-83
2021/06/14 21:54:21;;;;;;;10.15;8.95;;;24.40;81.00;;;;;;6121562;23;20074;-82
2021/06/14 21:56:47;;;;;;;13.60;9.05;;;24.30;81.10;;;;;;6121713;23;20009;-81
2021/06/14 21:59:13;;;;;;;9.38;8.48;;;24.30;81.00;;;;;;6121527;23;20100;-80
2021/06/14 22:01:40;;;;;;;12.63;9.68;;;24.30;81.00;;;;;;6121512;23;20037;-80
2021/06/14 22:04:07;;;;;;;11.65;9.18;;;24.30;81.30;;;;;;6096155;23;20020;-80
2021/06/14 22:06:34;;;;;;;9.90;8.93;;;24.20;81.80;;;;;;6095847;23;20367;-82
2021/06/14 22:09:01;;;;;;;10.05;9.07;;;24.30;81.10;;;;;;6122996;23;20024;-84
2021/06/14 22:11:27;;;;;;;12.77;9.88;;;24.40;81.70;;;;;;6096884;23;20010;-83
2021/06/14 22:13:58;;;;;;;13.73;11.15;;;24.30;81.20;;;;;;6096706;23;20006;-83
2021/06/14 22:16:26;;;;;;;15.98;9.30;;;24.20;81.60;;;;;;6095888;23;20025;-83
2021/06/14 22:18:52;;;;;;;10.98;9.20;;;24.40;81.80;;;;;;6095785;23;20022;-81
2021/06/14 22:21:18;;;;;;;12.82;10.25;;;24.10;81.60;;;;;;6095993;23;20006;-82
2021/06/14 22:23:44;;;;;;;13.20;8.90;;;24.20;82.20;;;;;;6121730;23;20017;-83
2021/06/14 22:26:10;;;;;;;10.82;8.30;;;24.10;81.30;;;;;;6071832;23;20018;-81
2021/06/14 22:28:36;;;;;;;10.15;9.15;;;24.00;81.20;;;;;;6095555;23;20462;-81
2021/06/14 22:31:03;;;;;;;10.35;9.27;;;24.00;81.50;;;;;;6096190;23;20432;-80
2021/06/14 22:33:29;;;;;;;10.43;9.40;;;23.90;81.50;;;;;;6121005;23;20107;-80
2021/06/14 22:35:54;;;;;;;9.00;8.20;;;23.90;81.60;;;;;;6121330;23;20018;-80
2021/06/14 22:38:20;;;;;;;11.35;9.48;;;23.80;81.60;;;;;;6095663;23;20028;-80
2021/06/14 22:40:46;;;;;;;10.93;9.07;;;23.80;81.60;;;;;;6095982;23;20018;-79
2021/06/14 22:43:12;;;;;;;13.88;9.55;;;23.80;82.20;;;;;;6121222;23;20047;-79
2021/06/14 22:45:39;;;;;;;10.77;9.40;;;23.70;81.50;;;;;;6121603;23;20036;-80
2021/06/14 22:48:05;;;;;;;9.88;8.70;;;23.70;81.70;;;;;;6121086;23;20013;-79
2021/06/14 22:50:31;;;;;;;10.82;8.95;;;23.80;81.20;;;;;;6121817;23;20021;-81
2021/06/14 22:52:57;;;;;;;11.93;8.63;;;23.70;81.70;;;;;;6121579;23;20010;-82
2021/06/14 22:55:23;;;;;;;10.70;9.30;;;23.80;81.60;;;;;;6071921;23;20017;-81
2021/06/14 22:57:49;;;;;;;11.07;9.98;;;23.80;81.50;;;;;;6121494;23;20018;-81
2021/06/14 23:00:21;;;;;;;16.80;11.00;;;23.70;81.60;;;;;;6097209;23;20360;-82
2021/06/14 23:02:47;;;;;;;12.27;10.70;;;23.80;81.70;;;;;;6074408;23;20339;-82
2021/06/14 23:05:13;;;;;;;11.70;10.48;;;23.80;81.10;;;;;;6098066;23;20010;-82
2021/06/14 23:07:39;;;;;;;10.18;9.18;;;23.70;80.60;;;;;;6122204;23;20020;-80
2021/06/14 23:10:08;;;;;;;10.35;9.30;;;23.80;81.00;;;;;;6123959;23;20092;-81
2021/06/14 23:12:34;;;;;;;11.95;9.80;;;23.70;81.20;;;;;;6073637;23;20406;-80
2021/06/14 23:15:00;;;;;;;10.27;9.25;;;23.70;81.00;;;;;;6123932;23;20017;-81
2021/06/14 23:17:25;;;;;;;10.52;9.52;;;23.70;81.60;;;;;;6122840;23;20014;-80
2021/06/14 23:19:52;;;;;;;13.23;10.23;;;23.70;80.70;;;;;;6123225;23;20468;-80
2021/06/14 23:22:18;;;;;;;13.23;9.75;;;23.70;80.60;;;;;;6097534;23;20093;-79
2021/06/14 23:24:44;;;;;;;13.80;9.68;;;23.80;80.40;;;;;;6097686;23;20033;-81
2021/06/14 23:27:11;;;;;;;11.32;9.40;;;23.70;80.60;;;;;;6106985;23;20016;-87
2021/06/14 23:29:37;;;;;;;13.85;9.30;;;23.70;80.90;;;;;;6079469;23;20096;-84
2021/06/14 23:32:03;;;;;;;11.98;10.15;;;23.60;81.00;;;;;;6127341;23;20018;-83
2021/06/14 23:34:30;;;;;;;10.70;9.60;;;23.60;81.10;;;;;;6099705;23;20006;-83
2021/06/14 23:36:56;;;;;;;14.82;11.10;;;23.60;81.10;;;;;;6134646;23;20039;-85
2021/06/14 23:39:23;;;;;;;11.73;10.00;;;23.50;81.00;;;;;;6131116;23;20033;-83
2021/06/14 23:41:50;;;;;;;14.02;11.63;;;23.50;81.00;;;;;;6100375;23;20014;-84
2021/06/14 23:44:16;;;;;;;13.02;11.63;;;23.60;80.70;;;;;;6127974;23;20014;-84
2021/06/14 23:46:42;;;;;;;14.05;11.82;;;23.50;80.40;;;;;;6130654;23;20017;-84
2021/06/14 23:49:08;;;;;;;12.05;10.80;;;23.50;80.10;;;;;;6124433;23;20104;-80
2021/06/14 23:51:35;;;;;;;15.18;10.90;;;23.60;79.60;;;;;;6097083;23;20107;-82
2021/06/14 23:54:01;;;;;;;12.30;10.98;;;23.60;79.20;;;;;;6122225;23;20017;-82
2021/06/14 23:56:27;;;;;;;13.25;11.63;;;23.60;79.00;;;;;;6122873;23;20020;-81
2021/06/14 23:58:53;;;;;;;13.00;11.38;;;23.50;78.90;;;;;;6072815;23;20025;-82
